sensor_id;sensor_type;location;lat;lon;timestamp;P1;durP1;ratioP1;P2;durP2;ratioP2
56321;SDS011;42227;6.376;-10.782;2023-07-31T00:02:15;22.70;;;12.27;;
56321;SDS011;42227;6.376;-10.782;2023-07-31T00:04:46;23.65;;;13.27;;
56321;SDS011;42227;6.376;-10.782;2023-07-31T00:07:16;19.88;;;11.70;;
56321;SDS011;42227;6.376;-10.782;2023-07-31T00:09:45;19.15;;;10.75;;
56321;SDS011;42227;6.376;-10.782;2023-07-31T00:12:13;18.73;;;10.80;;
56321;SDS011;42227;6.376;-10.782;2023-07-31T00:14:42;13.52;;;9.60;;
56321;SDS011;42227;6.376;-10.782;2023-07-31T00:17:10;15.50;;;9.40;;
56321;SDS011;42227;6.376;-10.782;2023-07-31T00:19:39;20.33;;;11.65;;
56321;SDS011;42227;6.376;-10.782;2023-07-31T00:22:07;13.65;;;9.43;;
56321;SDS011;42227;6.376;-10.782;2023-07-31T00:24:35;13.68;;;8.70;;
56321;SDS011;42227;6.376;-10.782;2023-07-31T00:27:04;16.15;;;9.55;;
56321;SDS011;42227;6.376;-10.782;2023-07-31T00:29:32;15.57;;;10.80;;
56321;SDS011;42227;6.376;-10.782;2023-07-31T00:32:03;14.80;;;10.05;;
56321;SDS011;42227;6.376;-10.782;2023-07-31T00:34:32;18.42;;;11.25;;
56321;SDS011;42227;6.376;-10.782;2023-07-31T00:37:02;25.23;;;11.07;;
56321;SDS011;42227;6.376;-10.782;2023-07-31T00:39:30;17.60;;;10.52;;
56321;SDS011;42227;6.376;-10.782;2023-07-31T00:41:59;20.52;;;11.68;;
56321;SDS011;42227;6.376;-10.782;2023-07-31T00:44:27;19.73;;;12.25;;
56321;SDS011;42227;6.376;-10.782;2023-07-31T00:46:56;20.67;;;11.38;;
56321;SDS011;42227;6.376;-10.782;2023-07-31T00:49:24;21.05;;;12.73;;
56321;SDS011;42227;6.376;-10.782;2023-07-31T00:51:55;18.08;;;10.75;;
56321;SDS011;42227;6.376;-10.782;2023-07-31T00:54:24;14.68;;;9.98;;
56321;SDS011;42227;6.376;-10.782;2023-07-31T00:56:53;21.98;;;10.68;;
56321;SDS011;42227;6.376;-10.782;2023-07-31T00:59:22;13.35;;;9.70;;
56321;SDS011;42227;6.376;-10.782;2023-07-31T01:01:51;15.65;;;9.05;;
56321;SDS011;42227;6.376;-10.782;2023-07-31T01:04:20;12.60;;;10.00;;
56321;SDS011;42227;6.376;-10.782;2023-07-31T01:12:33;13.70;;;9.32;;
56321;SDS011;42227;6.376;-10.782;2023-07-31T01:15:05;15.60;;;9.43;;
56321;SDS011;42227;6.376;-10.782;2023-07-31T01:17:38;17.48;;;10.13;;
56321;SDS011;42227;6.376;-10.782;2023-07-31T01:20:11;12.00;;;9.95;;
56321;SDS011;42227;6.376;-10.782;2023-07-31T01:31:25;15.68;;;8.43;;
56321;SDS011;42227;6.376;-10.782;2023-07-31T01:33:57;13.32;;;9.32;;
56321;SDS011;42227;6.376;-10.782;2023-07-31T01:36:30;12.57;;;8.75;;
56321;SDS011;42227;6.376;-10.782;2023-07-31T01:38:59;12.10;;;8.55;;
56321;SDS011;42227;6.376;-10.782;2023-07-31T01:41:29;16.08;;;9.98;;
56321;SDS011;42227;6.376;-10.782;2023-07-31T01:43:57;16.38;;;9.15;;
56321;SDS011;42227;6.376;-10.782;2023-07-31T01:46:26;16.35;;;10.23;;
56321;SDS011;42227;6.376;-10.782;2023-07-31T01:48:55;24.98;;;11.77;;
56321;SDS011;42227;6.376;-10.782;2023-07-31T01:51:24;17.33;;;11.55;;
56321;SDS011;42227;6.376;-10.782;2023-07-31T01:53:52;14.82;;;9.75;;
56321;SDS011;42227;6.376;-10.782;2023-07-31T01:56:21;17.75;;;10.10;;
56321;SDS011;42227;6.376;-10.782;2023-07-31T01:58:49;17.38;;;10.90;;
56321;SDS011;42227;6.376;-10.782;2023-07-31T02:01:17;17.60;;;10.48;;
56321;SDS011;42227;6.376;-10.782;2023-07-31T02:03:46;19.70;;;9.80;;
56321;SDS011;42227;6.376;-10.782;2023-07-31T02:06:15;17.23;;;9.25;;
56321;SDS011;42227;6.376;-10.782;2023-07-31T02:08:43;17.60;;;9.70;;
56321;SDS011;42227;6.376;-10.782;2023-07-31T02:11:12;15.27;;;9.20;;
56321;SDS011;42227;6.376;-10.782;2023-07-31T02:13:40;14.25;;;8.73;;
56321;SDS011;42227;6.376;-10.782;2023-07-31T02:16:09;12.00;;;8.73;;
56321;SDS011;42227;6.376;-10.782;2023-07-31T02:18:37;14.07;;;9.48;;
56321;SDS011;42227;6.376;-10.782;2023-07-31T02:21:06;16.65;;;9.63;;
56321;SDS011;42227;6.376;-10.782;2023-07-31T02:23:34;15.98;;;10.20;;
56321;SDS011;42227;6.376;-10.782;2023-07-31T02:26:03;13.88;;;9.00;;
56321;SDS011;42227;6.376;-10.782;2023-07-31T02:28:31;14.15;;;9.13;;
56321;SDS011;42227;6.376;-10.782;2023-07-31T02:31:00;14.55;;;9.60;;
56321;SDS011;42227;6.376;-10.782;2023-07-31T02:33:28;19.25;;;9.80;;
56321;SDS011;42227;6.376;-10.782;2023-07-31T02:35:57;17.48;;;9.63;;
56321;SDS011;42227;6.376;-10.782;2023-07-31T02:38:26;17.98;;;9.27;;
56321;SDS011;42227;6.376;-10.782;2023-07-31T02:40:55;13.50;;;9.15;;
56321;SDS011;42227;6.376;-10.782;2023-07-31T02:43:23;11.15;;;9.10;;
56321;SDS011;42227;6.376;-10.782;2023-07-31T02:45:52;12.40;;;9.00;;
56321;SDS011;42227;6.376;-10.782;2023-07-31T02:48:21;17.75;;;10.38;;
56321;SDS011;42227;6.376;-10.782;2023-07-31T02:50:49;19.52;;;11.73;;
56321;SDS011;42227;6.376;-10.782;2023-07-31T02:53:18;14.18;;;10.60;;
56321;SDS011;42227;6.376;-10.782;2023-07-31T02:55:46;18.98;;;10.23;;
56321;SDS011;42227;6.376;-10.782;2023-07-31T02:58:15;19.73;;;12.55;;
56321;SDS011;42227;6.376;-10.782;2023-07-31T03:00:43;16.90;;;11.93;;
56321;SDS011;42227;6.376;-10.782;2023-07-31T03:03:15;22.83;;;13.15;;
56321;SDS011;42227;6.376;-10.782;2023-07-31T03:05:44;18.50;;;10.77;;
56321;SDS011;42227;6.376;-10.782;2023-07-31T03:08:12;16.52;;;11.40;;
56321;SDS011;42227;6.376;-10.782;2023-07-31T03:10:41;17.45;;;11.48;;
56321;SDS011;42227;6.376;-10.782;2023-07-31T03:13:09;23.52;;;12.68;;
56321;SDS011;42227;6.376;-10.782;2023-07-31T03:15:38;17.52;;;10.38;;
56321;SDS011;42227;6.376;-10.782;2023-07-31T03:18:09;17.63;;;10.57;;
56321;SDS011;42227;6.376;-10.782;2023-07-31T03:20:41;17.50;;;11.80;;
56321;SDS011;42227;6.376;-10.782;2023-07-31T03:23:11;13.95;;;10.40;;
56321;SDS011;42227;6.376;-10.782;2023-07-31T03:25:41;16.35;;;10.15;;
56321;SDS011;42227;6.376;-10.782;2023-07-31T03:28:22;13.52;;;9.73;;
56321;SDS011;42227;6.376;-10.782;2023-07-31T03:30:52;14.73;;;10.70;;
56321;SDS011;42227;6.376;-10.782;2023-07-31T03:33:21;19.10;;;12.48;;
56321;SDS011;42227;6.376;-10.782;2023-07-31T03:35:50;21.30;;;11.70;;
56321;SDS011;42227;6.376;-10.782;2023-07-31T03:38:18;18.25;;;12.55;;
56321;SDS011;42227;6.376;-10.782;2023-07-31T03:40:47;22.02;;;12.20;;
56321;SDS011;42227;6.376;-10.782;2023-07-31T03:43:15;17.33;;;11.15;;
56321;SDS011;42227;6.376;-10.782;2023-07-31T03:45:44;20.88;;;11.50;;
56321;SDS011;42227;6.376;-10.782;2023-07-31T03:48:13;25.23;;;12.40;;
56321;SDS011;42227;6.376;-10.782;2023-07-31T03:50:42;21.98;;;12.55;;
56321;SDS011;42227;6.376;-10.782;2023-07-31T03:53:10;18.95;;;11.70;;
56321;SDS011;42227;6.376;-10.782;2023-07-31T03:58:20;18.30;;;12.90;;
56321;SDS011;42227;6.376;-10.782;2023-07-31T04:00:48;15.55;;;11.48;;
56321;SDS011;42227;6.376;-10.782;2023-07-31T04:03:17;13.95;;;11.45;;
56321;SDS011;42227;6.376;-10.782;2023-07-31T04:05:45;17.30;;;12.00;;
56321;SDS011;42227;6.376;-10.782;2023-07-31T04:08:13;17.65;;;11.40;;
56321;SDS011;42227;6.376;-10.782;2023-07-31T04:10:42;18.90;;;11.90;;
56321;SDS011;42227;6.376;-10.782;2023-07-31T04:13:10;18.73;;;11.52;;
56321;SDS011;42227;6.376;-10.782;2023-07-31T04:15:38;16.25;;;12.48;;
56321;SDS011;42227;6.376;-10.782;2023-07-31T04:18:07;16.63;;;12.63;;
56321;SDS011;42227;6.376;-10.782;2023-07-31T04:20:35;14.23;;;11.65;;
56321;SDS011;42227;6.376;-10.782;2023-07-31T04:23:04;18.65;;;12.20;;
56321;SDS011;42227;6.376;-10.782;2023-07-31T04:25:32;21.27;;;13.15;;
56321;SDS011;42227;6.376;-10.782;2023-07-31T04:28:01;16.20;;;10.93;;
56321;SDS011;42227;6.376;-10.782;2023-07-31T04:30:29;19.20;;;14.82;;
56321;SDS011;42227;6.376;-10.782;2023-07-31T04:32:58;19.65;;;15.02;;
56321;SDS011;42227;6.376;-10.782;2023-07-31T04:35:27;32.10;;;23.85;;
56321;SDS011;42227;6.376;-10.782;2023-07-31T04:37:55;23.33;;;19.65;;
56321;SDS011;42227;6.376;-10.782;2023-07-31T04:40:23;31.05;;;19.48;;
56321;SDS011;42227;6.376;-10.782;2023-07-31T04:42:52;25.63;;;14.95;;
56321;SDS011;42227;6.376;-10.782;2023-07-31T04:45:20;17.27;;;11.60;;
56321;SDS011;42227;6.376;-10.782;2023-07-31T04:47:48;25.73;;;11.98;;
56321;SDS011;42227;6.376;-10.782;2023-07-31T04:50:17;22.58;;;11.57;;
56321;SDS011;42227;6.376;-10.782;2023-07-31T04:52:45;19.27;;;11.57;;
56321;SDS011;42227;6.376;-10.782;2023-07-31T04:55:13;19.52;;;12.85;;
56321;SDS011;42227;6.376;-10.782;2023-07-31T04:57:42;17.10;;;12.15;;
56321;SDS011;42227;6.376;-10.782;2023-07-31T05:00:10;18.30;;;10.88;;
56321;SDS011;42227;6.376;-10.782;2023-07-31T05:02:39;18.60;;;10.77;;
56321;SDS011;42227;6.376;-10.782;2023-07-31T05:05:08;14.40;;;8.52;;
56321;SDS011;42227;6.376;-10.782;2023-07-31T05:07:36;20.63;;;10.15;;
56321;SDS011;42227;6.376;-10.782;2023-07-31T05:13:19;16.58;;;9.68;;
56321;SDS011;42227;6.376;-10.782;2023-07-31T05:15:48;19.23;;;11.70;;
56321;SDS011;42227;6.376;-10.782;2023-07-31T05:18:16;18.92;;;10.35;;
56321;SDS011;42227;6.376;-10.782;2023-07-31T05:20:45;17.20;;;11.15;;
56321;SDS011;42227;6.376;-10.782;2023-07-31T05:23:13;16.13;;;11.23;;
56321;SDS011;42227;6.376;-10.782;2023-07-31T05:25:42;12.80;;;9.48;;
56321;SDS011;42227;6.376;-10.782;2023-07-31T05:28:11;13.07;;;9.50;;
56321;SDS011;42227;6.376;-10.782;2023-07-31T05:30:40;12.57;;;9.90;;
56321;SDS011;42227;6.376;-10.782;2023-07-31T05:33:08;16.42;;;9.70;;
56321;SDS011;42227;6.376;-10.782;2023-07-31T05:35:39;11.98;;;9.30;;
56321;SDS011;42227;6.376;-10.782;2023-07-31T05:38:07;14.68;;;7.85;;
56321;SDS011;42227;6.376;-10.782;2023-07-31T05:40:37;14.18;;;8.30;;
56321;SDS011;42227;6.376;-10.782;2023-07-31T05:43:05;12.68;;;7.93;;
56321;SDS011;42227;6.376;-10.782;2023-07-31T05:45:34;13.30;;;8.23;;
56321;SDS011;42227;6.376;-10.782;2023-07-31T05:48:02;12.90;;;8.73;;
56321;SDS011;42227;6.376;-10.782;2023-07-31T05:50:31;10.88;;;8.98;;
56321;SDS011;42227;6.376;-10.782;2023-07-31T05:52:59;15.40;;;9.68;;
56321;SDS011;42227;6.376;-10.782;2023-07-31T05:55:28;29.98;;;10.52;;
56321;SDS011;42227;6.376;-10.782;2023-07-31T05:57:56;14.25;;;8.52;;
56321;SDS011;42227;6.376;-10.782;2023-07-31T06:00:27;15.82;;;7.95;;
56321;SDS011;42227;6.376;-10.782;2023-07-31T06:02:55;12.02;;;7.32;;
56321;SDS011;42227;6.376;-10.782;2023-07-31T06:05:24;14.32;;;7.18;;
56321;SDS011;42227;6.376;-10.782;2023-07-31T06:07:53;12.10;;;7.65;;
56321;SDS011;42227;6.376;-10.782;2023-07-31T06:10:21;14.43;;;8.07;;
56321;SDS011;42227;6.376;-10.782;2023-07-31T06:12:49;13.68;;;8.23;;
56321;SDS011;42227;6.376;-10.782;2023-07-31T06:15:18;10.93;;;7.28;;
56321;SDS011;42227;6.376;-10.782;2023-07-31T06:17:46;15.32;;;8.40;;
56321;SDS011;42227;6.376;-10.782;2023-07-31T06:20:15;9.98;;;8.00;;
56321;SDS011;42227;6.376;-10.782;2023-07-31T06:22:43;14.45;;;9.15;;
56321;SDS011;42227;6.376;-10.782;2023-07-31T06:25:12;14.18;;;8.02;;
56321;SDS011;42227;6.376;-10.782;2023-07-31T06:27:41;12.60;;;8.25;;
56321;SDS011;42227;6.376;-10.782;2023-07-31T06:30:10;11.90;;;8.23;;
56321;SDS011;42227;6.376;-10.782;2023-07-31T06:32:39;9.85;;;8.05;;
56321;SDS011;42227;6.376;-10.782;2023-07-31T06:35:08;15.25;;;9.27;;
56321;SDS011;42227;6.376;-10.782;2023-07-31T06:37:36;21.52;;;10.27;;
56321;SDS011;42227;6.376;-10.782;2023-07-31T06:40:05;14.35;;;8.77;;
56321;SDS011;42227;6.376;-10.782;2023-07-31T06:42:34;13.57;;;9.95;;
56321;SDS011;42227;6.376;-10.782;2023-07-31T06:45:03;16.30;;;10.43;;
56321;SDS011;42227;6.376;-10.782;2023-07-31T06:47:31;14.07;;;10.07;;
56321;SDS011;42227;6.376;-10.782;2023-07-31T06:50:00;16.90;;;13.32;;
56321;SDS011;42227;6.376;-10.782;2023-07-31T06:52:28;22.08;;;13.27;;
56321;SDS011;42227;6.376;-10.782;2023-07-31T06:55:00;20.83;;;11.98;;
56321;SDS011;42227;6.376;-10.782;2023-07-31T06:57:46;21.60;;;15.13;;
56321;SDS011;42227;6.376;-10.782;2023-07-31T07:00:15;21.48;;;14.48;;
56321;SDS011;42227;6.376;-10.782;2023-07-31T07:02:45;21.63;;;15.27;;
56321;SDS011;42227;6.376;-10.782;2023-07-31T07:05:14;13.90;;;11.15;;
56321;SDS011;42227;6.376;-10.782;2023-07-31T07:07:43;21.48;;;12.30;;
56321;SDS011;42227;6.376;-10.782;2023-07-31T07:10:12;16.58;;;11.27;;
56321;SDS011;42227;6.376;-10.782;2023-07-31T07:12:41;13.55;;;10.20;;
56321;SDS011;42227;6.376;-10.782;2023-07-31T07:15:09;14.48;;;10.27;;
56321;SDS011;42227;6.376;-10.782;2023-07-31T07:17:38;12.13;;;10.10;;
56321;SDS011;42227;6.376;-10.782;2023-07-31T07:20:07;15.02;;;10.65;;
56321;SDS011;42227;6.376;-10.782;2023-07-31T07:22:36;15.65;;;11.27;;
56321;SDS011;42227;6.376;-10.782;2023-07-31T07:25:05;13.13;;;11.27;;
56321;SDS011;42227;6.376;-10.782;2023-07-31T07:27:34;14.75;;;11.63;;
56321;SDS011;42227;6.376;-10.782;2023-07-31T07:30:03;23.98;;;11.95;;
56321;SDS011;42227;6.376;-10.782;2023-07-31T07:32:32;19.48;;;11.90;;
56321;SDS011;42227;6.376;-10.782;2023-07-31T07:35:00;18.90;;;12.32;;
56321;SDS011;42227;6.376;-10.782;2023-07-31T07:37:29;18.00;;;12.70;;
56321;SDS011;42227;6.376;-10.782;2023-07-31T07:39:59;15.65;;;12.80;;
56321;SDS011;42227;6.376;-10.782;2023-07-31T07:42:28;19.08;;;11.70;;
56321;SDS011;42227;6.376;-10.782;2023-07-31T07:44:56;15.65;;;10.77;;
56321;SDS011;42227;6.376;-10.782;2023-07-31T07:47:25;19.05;;;11.70;;
56321;SDS011;42227;6.376;-10.782;2023-07-31T07:49:55;15.38;;;12.93;;
56321;SDS011;42227;6.376;-10.782;2023-07-31T07:52:23;11.55;;;10.35;;
56321;SDS011;42227;6.376;-10.782;2023-07-31T07:54:52;20.48;;;11.82;;
56321;SDS011;42227;6.376;-10.782;2023-07-31T07:57:20;13.25;;;10.65;;
56321;SDS011;42227;6.376;-10.782;2023-07-31T07:59:49;16.08;;;11.52;;
56321;SDS011;42227;6.376;-10.782;2023-07-31T08:02:18;16.08;;;11.68;;
56321;SDS011;42227;6.376;-10.782;2023-07-31T08:04:46;12.38;;;9.98;;
56321;SDS011;42227;6.376;-10.782;2023-07-31T08:07:16;12.07;;;10.55;;
56321;SDS011;42227;6.376;-10.782;2023-07-31T08:09:45;14.45;;;10.88;;
56321;SDS011;42227;6.376;-10.782;2023-07-31T08:12:14;18.98;;;10.77;;
56321;SDS011;42227;6.376;-10.782;2023-07-31T08:14:44;10.93;;;8.40;;
56321;SDS011;42227;6.376;-10.782;2023-07-31T08:17:13;22.13;;;8.82;;
56321;SDS011;42227;6.376;-10.782;2023-07-31T08:19:41;13.27;;;9.07;;
56321;SDS011;42227;6.376;-10.782;2023-07-31T08:22:10;10.65;;;8.65;;
56321;SDS011;42227;6.376;-10.782;2023-07-31T08:24:38;20.08;;;10.65;;
56321;SDS011;42227;6.376;-10.782;2023-07-31T08:27:07;15.35;;;9.70;;
56321;SDS011;42227;6.376;-10.782;2023-07-31T08:29:35;13.52;;;10.93;;
56321;SDS011;42227;6.376;-10.782;2023-07-31T08:32:04;13.73;;;9.57;;
56321;SDS011;42227;6.376;-10.782;2023-07-31T08:34:33;13.18;;;9.48;;
56321;SDS011;42227;6.376;-10.782;2023-07-31T08:37:01;17.92;;;9.68;;
56321;SDS011;42227;6.376;-10.782;2023-07-31T08:39:30;16.60;;;9.20;;
56321;SDS011;42227;6.376;-10.782;2023-07-31T08:41:59;10.75;;;8.38;;
56321;SDS011;42227;6.376;-10.782;2023-07-31T08:44:29;9.63;;;7.80;;
56321;SDS011;42227;6.376;-10.782;2023-07-31T08:46:59;12.80;;;8.23;;
56321;SDS011;42227;6.376;-10.782;2023-07-31T08:49:28;9.73;;;7.32;;
56321;SDS011;42227;6.376;-10.782;2023-07-31T08:52:01;14.15;;;6.13;;
56321;SDS011;42227;6.376;-10.782;2023-07-31T08:54:30;12.27;;;6.85;;
56321;SDS011;42227;6.376;-10.782;2023-07-31T08:56:58;11.05;;;7.25;;
56321;SDS011;42227;6.376;-10.782;2023-07-31T08:59:29;9.00;;;6.07;;
56321;SDS011;42227;6.376;-10.782;2023-07-31T09:07:01;12.07;;;8.50;;
56321;SDS011;42227;6.376;-10.782;2023-07-31T09:09:38;13.50;;;9.38;;
56321;SDS011;42227;6.376;-10.782;2023-07-31T09:12:06;15.65;;;9.40;;
56321;SDS011;42227;6.376;-10.782;2023-07-31T09:14:36;10.55;;;8.68;;
56321;SDS011;42227;6.376;-10.782;2023-07-31T09:17:05;19.20;;;8.63;;
56321;SDS011;42227;6.376;-10.782;2023-07-31T09:19:34;13.90;;;9.32;;
56321;SDS011;42227;6.376;-10.782;2023-07-31T09:22:04;9.45;;;7.95;;
56321;SDS011;42227;6.376;-10.782;2023-07-31T09:24:33;19.33;;;12.77;;
56321;SDS011;42227;6.376;-10.782;2023-07-31T09:27:02;12.68;;;9.57;;
56321;SDS011;42227;6.376;-10.782;2023-07-31T09:29:31;20.73;;;12.55;;
56321;SDS011;42227;6.376;-10.782;2023-07-31T09:32:00;21.33;;;17.00;;
56321;SDS011;42227;6.376;-10.782;2023-07-31T09:34:30;17.75;;;13.85;;
56321;SDS011;42227;6.376;-10.782;2023-07-31T09:37:05;16.58;;;11.88;;
56321;SDS011;42227;6.376;-10.782;2023-07-31T09:39:44;16.20;;;11.52;;
56321;SDS011;42227;6.376;-10.782;2023-07-31T09:42:14;20.70;;;17.13;;
56321;SDS011;42227;6.376;-10.782;2023-07-31T09:44:53;16.92;;;11.93;;
56321;SDS011;42227;6.376;-10.782;2023-07-31T09:47:24;14.68;;;9.43;;
56321;SDS011;42227;6.376;-10.782;2023-07-31T09:49:53;18.27;;;9.73;;
56321;SDS011;42227;6.376;-10.782;2023-07-31T09:52:22;37.63;;;13.40;;
56321;SDS011;42227;6.376;-10.782;2023-07-31T09:54:53;13.45;;;9.73;;
56321;SDS011;42227;6.376;-10.782;2023-07-31T09:57:22;33.72;;;11.40;;
56321;SDS011;42227;6.376;-10.782;2023-07-31T09:59:51;32.50;;;9.82;;
56321;SDS011;42227;6.376;-10.782;2023-07-31T10:02:21;12.75;;;8.43;;
56321;SDS011;42227;6.376;-10.782;2023-07-31T10:04:50;12.82;;;8.23;;
56321;SDS011;42227;6.376;-10.782;2023-07-31T10:07:20;16.50;;;8.23;;
56321;SDS011;42227;6.376;-10.782;2023-07-31T10:09:59;13.30;;;8.10;;
56321;SDS011;42227;6.376;-10.782;2023-07-31T10:12:31;13.20;;;7.50;;
56321;SDS011;42227;6.376;-10.782;2023-07-31T10:15:02;18.90;;;8.68;;
56321;SDS011;42227;6.376;-10.782;2023-07-31T10:17:31;12.45;;;7.32;;
56321;SDS011;42227;6.376;-10.782;2023-07-31T10:20:01;16.70;;;8.50;;
56321;SDS011;42227;6.376;-10.782;2023-07-31T10:22:31;15.82;;;9.40;;
56321;SDS011;42227;6.376;-10.782;2023-07-31T10:25:00;14.40;;;10.15;;
56321;SDS011;42227;6.376;-10.782;2023-07-31T10:27:29;12.13;;;8.48;;
56321;SDS011;42227;6.376;-10.782;2023-07-31T10:29:58;9.95;;;8.35;;
56321;SDS011;42227;6.376;-10.782;2023-07-31T10:32:27;13.57;;;9.32;;
56321;SDS011;42227;6.376;-10.782;2023-07-31T10:34:56;13.55;;;9.30;;
56321;SDS011;42227;6.376;-10.782;2023-07-31T10:37:27;12.05;;;8.60;;
56321;SDS011;42227;6.376;-10.782;2023-07-31T10:40:00;12.05;;;10.20;;
56321;SDS011;42227;6.376;-10.782;2023-07-31T10:42:35;13.55;;;7.57;;
56321;SDS011;42227;6.376;-10.782;2023-07-31T10:48:14;12.75;;;11.15;;
56321;SDS011;42227;6.376;-10.782;2023-07-31T10:50:48;18.35;;;12.77;;
56321;SDS011;42227;6.376;-10.782;2023-07-31T10:53:30;17.60;;;10.68;;
56321;SDS011;42227;6.376;-10.782;2023-07-31T10:56:09;14.52;;;8.35;;
56321;SDS011;42227;6.376;-10.782;2023-07-31T10:58:38;12.82;;;7.50;;
56321;SDS011;42227;6.376;-10.782;2023-07-31T11:01:07;13.45;;;8.45;;
56321;SDS011;42227;6.376;-10.782;2023-07-31T11:03:42;15.32;;;9.20;;
56321;SDS011;42227;6.376;-10.782;2023-07-31T11:06:13;9.60;;;7.97;;
56321;SDS011;42227;6.376;-10.782;2023-07-31T11:11:15;13.00;;;9.05;;
56321;SDS011;42227;6.376;-10.782;2023-07-31T11:13:46;15.18;;;10.70;;
56321;SDS011;42227;6.376;-10.782;2023-07-31T11:16:17;11.07;;;9.35;;
56321;SDS011;42227;6.376;-10.782;2023-07-31T11:18:47;11.52;;;8.15;;
56321;SDS011;42227;6.376;-10.782;2023-07-31T11:21:17;14.50;;;9.20;;
56321;SDS011;42227;6.376;-10.782;2023-07-31T11:23:51;14.20;;;9.80;;
56321;SDS011;42227;6.376;-10.782;2023-07-31T11:26:21;23.35;;;9.27;;
56321;SDS011;42227;6.376;-10.782;2023-07-31T11:28:57;14.05;;;9.20;;
56321;SDS011;42227;6.376;-10.782;2023-07-31T11:31:26;15.35;;;9.57;;
56321;SDS011;42227;6.376;-10.782;2023-07-31T11:34:15;14.25;;;9.65;;
56321;SDS011;42227;6.376;-10.782;2023-07-31T11:36:52;14.30;;;10.40;;
56321;SDS011;42227;6.376;-10.782;2023-07-31T11:39:22;12.93;;;8.70;;
56321;SDS011;42227;6.376;-10.782;2023-07-31T11:41:51;15.25;;;8.25;;
56321;SDS011;42227;6.376;-10.782;2023-07-31T11:44:19;12.77;;;7.93;;
56321;SDS011;42227;6.376;-10.782;2023-07-31T11:46:57;10.38;;;7.88;;
56321;SDS011;42227;6.376;-10.782;2023-07-31T11:49:28;12.25;;;9.02;;
56321;SDS011;42227;6.376;-10.782;2023-07-31T11:51:59;14.27;;;8.80;;
56321;SDS011;42227;6.376;-10.782;2023-07-31T11:54:29;12.15;;;8.45;;
56321;SDS011;42227;6.376;-10.782;2023-07-31T11:56:57;9.85;;;6.65;;
56321;SDS011;42227;6.376;-10.782;2023-07-31T11:59:29;9.63;;;7.95;;
56321;SDS011;42227;6.376;-10.782;2023-07-31T12:01:59;11.77;;;7.13;;
56321;SDS011;42227;6.376;-10.782;2023-07-31T12:04:27;10.43;;;8.18;;
56321;SDS011;42227;6.376;-10.782;2023-07-31T12:06:56;11.52;;;8.80;;
56321;SDS011;42227;6.376;-10.782;2023-07-31T12:09:27;9.50;;;7.82;;
56321;SDS011;42227;6.376;-10.782;2023-07-31T12:11:56;13.95;;;7.68;;
56321;SDS011;42227;6.376;-10.782;2023-07-31T12:14:26;10.65;;;8.52;;
56321;SDS011;42227;6.376;-10.782;2023-07-31T12:16:56;11.60;;;8.35;;
56321;SDS011;42227;6.376;-10.782;2023-07-31T12:19:26;12.50;;;9.20;;
56321;SDS011;42227;6.376;-10.782;2023-07-31T12:21:55;10.25;;;7.70;;
56321;SDS011;42227;6.376;-10.782;2023-07-31T12:24:24;11.13;;;7.05;;
56321;SDS011;42227;6.376;-10.782;2023-07-31T12:26:54;11.00;;;6.95;;
56321;SDS011;42227;6.376;-10.782;2023-07-31T12:29:23;14.75;;;7.70;;
56321;SDS011;42227;6.376;-10.782;2023-07-31T12:31:51;13.27;;;7.53;;
56321;SDS011;42227;6.376;-10.782;2023-07-31T12:34:20;12.77;;;6.53;;
56321;SDS011;42227;6.376;-10.782;2023-07-31T12:36:49;10.38;;;7.38;;
56321;SDS011;42227;6.376;-10.782;2023-07-31T12:39:20;21.58;;;8.60;;
56321;SDS011;42227;6.376;-10.782;2023-07-31T12:41:48;10.95;;;7.82;;
56321;SDS011;42227;6.376;-10.782;2023-07-31T12:44:17;11.45;;;7.13;;
56321;SDS011;42227;6.376;-10.782;2023-07-31T12:46:46;16.48;;;7.78;;
56321;SDS011;42227;6.376;-10.782;2023-07-31T12:49:14;13.07;;;8.50;;
56321;SDS011;42227;6.376;-10.782;2023-07-31T12:51:46;14.88;;;7.93;;
56321;SDS011;42227;6.376;-10.782;2023-07-31T12:54:23;15.75;;;7.97;;
56321;SDS011;42227;6.376;-10.782;2023-07-31T12:56:58;12.23;;;8.05;;
56321;SDS011;42227;6.376;-10.782;2023-07-31T12:59:27;10.65;;;7.57;;
56321;SDS011;42227;6.376;-10.782;2023-07-31T13:01:56;7.63;;;6.60;;
56321;SDS011;42227;6.376;-10.782;2023-07-31T13:04:24;24.60;;;10.05;;
56321;SDS011;42227;6.376;-10.782;2023-07-31T13:06:53;15.48;;;8.93;;
56321;SDS011;42227;6.376;-10.782;2023-07-31T13:09:22;15.48;;;9.27;;
56321;SDS011;42227;6.376;-10.782;2023-07-31T13:11:51;17.50;;;8.07;;
56321;SDS011;42227;6.376;-10.782;2023-07-31T13:14:19;11.80;;;8.80;;
56321;SDS011;42227;6.376;-10.782;2023-07-31T13:16:48;14.10;;;8.43;;
56321;SDS011;42227;6.376;-10.782;2023-07-31T13:19:16;10.82;;;8.43;;
56321;SDS011;42227;6.376;-10.782;2023-07-31T13:21:45;15.02;;;7.97;;
56321;SDS011;42227;6.376;-10.782;2023-07-31T13:24:14;12.60;;;8.55;;
56321;SDS011;42227;6.376;-10.782;2023-07-31T13:26:42;12.95;;;8.10;;
56321;SDS011;42227;6.376;-10.782;2023-07-31T13:29:10;12.25;;;6.95;;
56321;SDS011;42227;6.376;-10.782;2023-07-31T13:31:39;12.65;;;7.20;;
56321;SDS011;42227;6.376;-10.782;2023-07-31T13:34:07;8.88;;;6.60;;
56321;SDS011;42227;6.376;-10.782;2023-07-31T13:36:37;10.68;;;7.68;;
56321;SDS011;42227;6.376;-10.782;2023-07-31T13:39:06;10.80;;;6.82;;
56321;SDS011;42227;6.376;-10.782;2023-07-31T13:41:34;9.82;;;5.80;;
56321;SDS011;42227;6.376;-10.782;2023-07-31T13:44:04;10.38;;;6.53;;
56321;SDS011;42227;6.376;-10.782;2023-07-31T13:46:32;12.23;;;6.60;;
56321;SDS011;42227;6.376;-10.782;2023-07-31T13:49:03;12.43;;;6.55;;
56321;SDS011;42227;6.376;-10.782;2023-07-31T13:51:31;9.93;;;6.47;;
56321;SDS011;42227;6.376;-10.782;2023-07-31T13:54:00;11.45;;;6.43;;
56321;SDS011;42227;6.376;-10.782;2023-07-31T13:56:29;9.55;;;6.28;;
56321;SDS011;42227;6.376;-10.782;2023-07-31T13:58:58;10.02;;;5.70;;
56321;SDS011;42227;6.376;-10.782;2023-07-31T14:01:26;15.30;;;6.53;;
56321;SDS011;42227;6.376;-10.782;2023-07-31T14:03:55;11.80;;;6.65;;
56321;SDS011;42227;6.376;-10.782;2023-07-31T14:06:23;8.35;;;5.50;;
56321;SDS011;42227;6.376;-10.782;2023-07-31T14:08:52;8.13;;;5.95;;
56321;SDS011;42227;6.376;-10.782;2023-07-31T14:11:21;12.02;;;5.15;;
56321;SDS011;42227;6.376;-10.782;2023-07-31T14:13:50;9.32;;;6.22;;
56321;SDS011;42227;6.376;-10.782;2023-07-31T14:16:19;13.57;;;7.32;;
56321;SDS011;42227;6.376;-10.782;2023-07-31T14:18:47;8.82;;;6.40;;
56321;SDS011;42227;6.376;-10.782;2023-07-31T14:21:17;13.02;;;8.10;;
56321;SDS011;42227;6.376;-10.782;2023-07-31T14:23:46;9.55;;;7.82;;
56321;SDS011;42227;6.376;-10.782;2023-07-31T14:26:14;9.32;;;6.13;;
56321;SDS011;42227;6.376;-10.782;2023-07-31T14:28:43;25.38;;;22.75;;
56321;SDS011;42227;6.376;-10.782;2023-07-31T14:31:12;15.63;;;12.65;;
56321;SDS011;42227;6.376;-10.782;2023-07-31T14:33:41;11.10;;;6.82;;
56321;SDS011;42227;6.376;-10.782;2023-07-31T14:36:09;8.70;;;5.55;;
56321;SDS011;42227;6.376;-10.782;2023-07-31T14:38:38;9.68;;;6.15;;
56321;SDS011;42227;6.376;-10.782;2023-07-31T14:41:07;10.30;;;6.50;;
56321;SDS011;42227;6.376;-10.782;2023-07-31T14:43:35;10.93;;;6.18;;
56321;SDS011;42227;6.376;-10.782;2023-07-31T14:46:04;12.82;;;5.97;;
56321;SDS011;42227;6.376;-10.782;2023-07-31T14:48:33;8.82;;;6.65;;
56321;SDS011;42227;6.376;-10.782;2023-07-31T14:51:02;14.98;;;7.72;;
56321;SDS011;42227;6.376;-10.782;2023-07-31T14:53:30;13.95;;;6.78;;
56321;SDS011;42227;6.376;-10.782;2023-07-31T14:55:59;10.57;;;5.80;;
56321;SDS011;42227;6.376;-10.782;2023-07-31T14:58:27;10.57;;;7.15;;
56321;SDS011;42227;6.376;-10.782;2023-07-31T15:00:56;9.43;;;6.97;;
56321;SDS011;42227;6.376;-10.782;2023-07-31T15:03:29;10.90;;;7.13;;